San Diego, California
Traffic Map
Current Weather Conditions
San Diego, California
Scattered Clouds
Scattered Clouds
72°
Feels Like: 72°
Wind Chill: 72° Ceiling: Unl
Heat Index: 72° Visibility: 10mi
Dew Point: 53° Wind: 10mph
Humidity: 51% Direction: 270° (W)
Pressure: 29.85in Gusts: 0mph
Raw Report DataKSAN 222151Z 27009KT 10SM FEW018 SCT040 22/12 A2985 RMK AO2 SLP106 T02220117
Traffic Incident Summary
Active as of:
Severity:
Category:
InformationThere was an issue retrieving the traffic information for this location. Please try a different location or try again shortly.
Advertisements